sensor_id;sensor_type;location;lat;lon;timestamp;P1;durP1;ratioP1;P2;durP2;ratioP2
5042;SDS011;2540;50.928;6.856;2022-12-16T00:01:21;98.85;;;30.55;;
5042;SDS011;2540;50.928;6.856;2022-12-16T00:03:56;110.40;;;35.10;;
5042;SDS011;2540;50.928;6.856;2022-12-16T00:06:22;113.45;;;32.40;;
5042;SDS011;2540;50.928;6.856;2022-12-16T00:08:48;109.85;;;33.67;;
5042;SDS011;2540;50.928;6.856;2022-12-16T00:11:13;133.37;;;37.30;;
5042;SDS011;2540;50.928;6.856;2022-12-16T00:13:38;134.63;;;36.73;;
5042;SDS011;2540;50.928;6.856;2022-12-16T00:16:11;118.50;;;37.15;;
5042;SDS011;2540;50.928;6.856;2022-12-16T00:18:36;123.20;;;35.05;;
5042;SDS011;2540;50.928;6.856;2022-12-16T00:21:01;112.03;;;33.60;;
5042;SDS011;2540;50.928;6.856;2022-12-16T00:23:27;127.17;;;35.13;;
5042;SDS011;2540;50.928;6.856;2022-12-16T00:25:53;138.47;;;37.57;;
5042;SDS011;2540;50.928;6.856;2022-12-16T00:28:18;125.63;;;35.70;;
5042;SDS011;2540;50.928;6.856;2022-12-16T00:30:47;127.15;;;38.20;;
5042;SDS011;2540;50.928;6.856;2022-12-16T00:33:12;117.57;;;37.40;;
5042;SDS011;2540;50.928;6.856;2022-12-16T00:35:37;146.63;;;38.67;;
5042;SDS011;2540;50.928;6.856;2022-12-16T00:38:02;160.00;;;41.00;;
5042;SDS011;2540;50.928;6.856;2022-12-16T00:40:28;133.47;;;39.60;;
5042;SDS011;2540;50.928;6.856;2022-12-16T00:42:53;158.93;;;38.80;;
5042;SDS011;2540;50.928;6.856;2022-12-16T00:45:18;133.17;;;36.83;;
5042;SDS011;2540;50.928;6.856;2022-12-16T00:47:44;126.83;;;36.00;;
5042;SDS011;2540;50.928;6.856;2022-12-16T00:50:09;151.00;;;38.87;;
5042;SDS011;2540;50.928;6.856;2022-12-16T00:52:36;125.93;;;36.73;;
5042;SDS011;2540;50.928;6.856;2022-12-16T00:55:02;122.30;;;37.33;;
5042;SDS011;2540;50.928;6.856;2022-12-16T00:57:27;139.10;;;36.37;;
5042;SDS011;2540;50.928;6.856;2022-12-16T00:59:52;153.53;;;37.00;;
5042;SDS011;2540;50.928;6.856;2022-12-16T01:02:18;137.40;;;37.87;;
5042;SDS011;2540;50.928;6.856;2022-12-16T01:04:43;140.83;;;38.03;;
5042;SDS011;2540;50.928;6.856;2022-12-16T01:07:08;118.40;;;40.30;;
5042;SDS011;2540;50.928;6.856;2022-12-16T01:09:33;131.30;;;35.07;;
5042;SDS011;2540;50.928;6.856;2022-12-16T01:11:58;119.57;;;36.13;;
5042;SDS011;2540;50.928;6.856;2022-12-16T01:14:24;111.93;;;33.23;;
5042;SDS011;2540;50.928;6.856;2022-12-16T01:16:49;102.90;;;33.60;;
5042;SDS011;2540;50.928;6.856;2022-12-16T01:19:14;103.30;;;33.93;;
5042;SDS011;2540;50.928;6.856;2022-12-16T01:21:39;108.60;;;33.80;;
5042;SDS011;2540;50.928;6.856;2022-12-16T01:24:04;117.63;;;34.37;;
5042;SDS011;2540;50.928;6.856;2022-12-16T01:26:30;139.57;;;37.97;;
5042;SDS011;2540;50.928;6.856;2022-12-16T01:28:55;114.07;;;34.87;;
5042;SDS011;2540;50.928;6.856;2022-12-16T01:31:21;153.20;;;36.70;;
5042;SDS011;2540;50.928;6.856;2022-12-16T01:33:47;134.30;;;36.60;;
5042;SDS011;2540;50.928;6.856;2022-12-16T01:36:12;130.70;;;37.53;;
5042;SDS011;2540;50.928;6.856;2022-12-16T01:38:38;120.10;;;34.93;;
5042;SDS011;2540;50.928;6.856;2022-12-16T01:41:05;98.40;;;31.23;;
5042;SDS011;2540;50.928;6.856;2022-12-16T01:43:31;98.43;;;31.93;;
5042;SDS011;2540;50.928;6.856;2022-12-16T01:46:07;104.53;;;33.05;;
5042;SDS011;2540;50.928;6.856;2022-12-16T01:53:56;111.15;;;31.13;;
5042;SDS011;2540;50.928;6.856;2022-12-16T01:56:22;98.50;;;33.28;;
5042;SDS011;2540;50.928;6.856;2022-12-16T01:58:48;108.03;;;35.00;;
5042;SDS011;2540;50.928;6.856;2022-12-16T02:01:13;115.03;;;33.90;;
5042;SDS011;2540;50.928;6.856;2022-12-16T02:03:38;99.60;;;32.50;;
5042;SDS011;2540;50.928;6.856;2022-12-16T02:06:05;109.43;;;32.97;;
5042;SDS011;2540;50.928;6.856;2022-12-16T02:08:31;111.63;;;33.40;;
5042;SDS011;2540;50.928;6.856;2022-12-16T02:16:19;98.78;;;30.48;;
5042;SDS011;2540;50.928;6.856;2022-12-16T02:29:02;94.40;;;30.23;;
5042;SDS011;2540;50.928;6.856;2022-12-16T02:31:32;105.13;;;31.07;;
5042;SDS011;2540;50.928;6.856;2022-12-16T02:39:12;93.75;;;29.00;;
5042;SDS011;2540;50.928;6.856;2022-12-16T02:44:07;103.38;;;30.20;;
5042;SDS011;2540;50.928;6.856;2022-12-16T02:46:37;113.38;;;37.97;;
5042;SDS011;2540;50.928;6.856;2022-12-16T02:49:06;111.25;;;32.38;;
5042;SDS011;2540;50.928;6.856;2022-12-16T02:51:32;108.80;;;29.77;;
5042;SDS011;2540;50.928;6.856;2022-12-16T02:53:58;101.20;;;31.85;;
5042;SDS011;2540;50.928;6.856;2022-12-16T02:59:12;115.72;;;30.02;;
5042;SDS011;2540;50.928;6.856;2022-12-16T03:04:40;95.13;;;27.88;;
5042;SDS011;2540;50.928;6.856;2022-12-16T03:07:07;91.68;;;30.27;;
5042;SDS011;2540;50.928;6.856;2022-12-16T03:09:35;92.63;;;27.58;;
5042;SDS011;2540;50.928;6.856;2022-12-16T03:12:02;93.63;;;30.25;;
5042;SDS011;2540;50.928;6.856;2022-12-16T03:14:29;103.07;;;28.90;;
5042;SDS011;2540;50.928;6.856;2022-12-16T03:16:55;101.75;;;30.70;;
5042;SDS011;2540;50.928;6.856;2022-12-16T03:19:20;96.40;;;30.20;;
5042;SDS011;2540;50.928;6.856;2022-12-16T03:24:31;95.70;;;29.63;;
5042;SDS011;2540;50.928;6.856;2022-12-16T03:29:40;97.47;;;29.05;;
5042;SDS011;2540;50.928;6.856;2022-12-16T03:32:13;103.18;;;28.95;;
5042;SDS011;2540;50.928;6.856;2022-12-16T03:34:50;100.47;;;31.90;;
5042;SDS011;2540;50.928;6.856;2022-12-16T03:37:16;111.60;;;31.73;;
5042;SDS011;2540;50.928;6.856;2022-12-16T03:39:48;121.90;;;32.88;;
5042;SDS011;2540;50.928;6.856;2022-12-16T03:42:14;111.82;;;35.75;;
5042;SDS011;2540;50.928;6.856;2022-12-16T03:44:40;114.17;;;31.00;;
5042;SDS011;2540;50.928;6.856;2022-12-16T03:47:06;103.55;;;34.03;;
5042;SDS011;2540;50.928;6.856;2022-12-16T03:49:31;124.93;;;35.03;;
5042;SDS011;2540;50.928;6.856;2022-12-16T03:51:56;124.40;;;33.63;;
5042;SDS011;2540;50.928;6.856;2022-12-16T03:54:21;129.53;;;32.80;;
5042;SDS011;2540;50.928;6.856;2022-12-16T03:56:48;105.88;;;30.20;;
5042;SDS011;2540;50.928;6.856;2022-12-16T03:59:13;95.10;;;28.83;;
5042;SDS011;2540;50.928;6.856;2022-12-16T04:01:38;113.80;;;30.73;;
5042;SDS011;2540;50.928;6.856;2022-12-16T04:04:04;88.73;;;28.33;;
5042;SDS011;2540;50.928;6.856;2022-12-16T04:06:29;118.23;;;31.53;;
5042;SDS011;2540;50.928;6.856;2022-12-16T04:08:54;92.97;;;28.73;;
5042;SDS011;2540;50.928;6.856;2022-12-16T04:11:19;100.33;;;30.23;;
5042;SDS011;2540;50.928;6.856;2022-12-16T04:14:03;85.60;;;29.05;;
5042;SDS011;2540;50.928;6.856;2022-12-16T04:16:47;95.82;;;29.35;;
5042;SDS011;2540;50.928;6.856;2022-12-16T04:19:32;91.30;;;27.77;;
5042;SDS011;2540;50.928;6.856;2022-12-16T04:22:18;91.95;;;30.70;;
5042;SDS011;2540;50.928;6.856;2022-12-16T04:25:14;89.80;;;29.38;;
5042;SDS011;2540;50.928;6.856;2022-12-16T04:27:40;99.03;;;29.00;;
5042;SDS011;2540;50.928;6.856;2022-12-16T04:30:11;115.18;;;32.55;;
5042;SDS011;2540;50.928;6.856;2022-12-16T04:35:29;103.43;;;29.77;;
5042;SDS011;2540;50.928;6.856;2022-12-16T04:38:13;100.30;;;29.98;;
5042;SDS011;2540;50.928;6.856;2022-12-16T04:40:57;95.43;;;28.75;;
5042;SDS011;2540;50.928;6.856;2022-12-16T04:43:41;85.25;;;28.80;;
5042;SDS011;2540;50.928;6.856;2022-12-16T04:46:25;97.05;;;26.95;;
5042;SDS011;2540;50.928;6.856;2022-12-16T04:49:09;91.18;;;31.23;;
5042;SDS011;2540;50.928;6.856;2022-12-16T04:51:53;99.30;;;31.05;;
5042;SDS011;2540;50.928;6.856;2022-12-16T04:54:37;85.68;;;29.58;;
5042;SDS011;2540;50.928;6.856;2022-12-16T04:57:21;98.65;;;30.48;;
5042;SDS011;2540;50.928;6.856;2022-12-16T05:00:05;97.40;;;31.15;;
5042;SDS011;2540;50.928;6.856;2022-12-16T05:02:48;97.72;;;29.25;;
5042;SDS011;2540;50.928;6.856;2022-12-16T05:05:32;89.90;;;27.95;;
5042;SDS011;2540;50.928;6.856;2022-12-16T05:08:16;98.50;;;28.90;;
5042;SDS011;2540;50.928;6.856;2022-12-16T05:11:10;81.38;;;27.75;;
5042;SDS011;2540;50.928;6.856;2022-12-16T05:13:54;87.25;;;26.73;;
5042;SDS011;2540;50.928;6.856;2022-12-16T05:16:38;82.20;;;26.52;;
5042;SDS011;2540;50.928;6.856;2022-12-16T05:19:22;104.88;;;29.40;;
5042;SDS011;2540;50.928;6.856;2022-12-16T05:22:06;101.95;;;31.75;;
5042;SDS011;2540;50.928;6.856;2022-12-16T05:24:50;112.28;;;29.83;;
5042;SDS011;2540;50.928;6.856;2022-12-16T05:27:51;114.70;;;31.20;;
5042;SDS011;2540;50.928;6.856;2022-12-16T05:30:35;125.88;;;31.50;;
5042;SDS011;2540;50.928;6.856;2022-12-16T05:33:18;115.40;;;30.77;;
5042;SDS011;2540;50.928;6.856;2022-12-16T05:36:02;128.93;;;33.70;;
5042;SDS011;2540;50.928;6.856;2022-12-16T05:38:46;111.55;;;30.70;;
5042;SDS011;2540;50.928;6.856;2022-12-16T05:41:30;118.22;;;30.58;;
5042;SDS011;2540;50.928;6.856;2022-12-16T05:44:14;120.88;;;31.77;;
5042;SDS011;2540;50.928;6.856;2022-12-16T05:46:58;121.05;;;30.25;;
5042;SDS011;2540;50.928;6.856;2022-12-16T05:49:42;112.82;;;30.40;;
5042;SDS011;2540;50.928;6.856;2022-12-16T05:52:26;118.40;;;29.10;;
5042;SDS011;2540;50.928;6.856;2022-12-16T05:55:10;101.40;;;29.48;;
5042;SDS011;2540;50.928;6.856;2022-12-16T05:57:54;115.57;;;29.55;;
5042;SDS011;2540;50.928;6.856;2022-12-16T06:00:38;96.93;;;29.80;;
5042;SDS011;2540;50.928;6.856;2022-12-16T06:03:21;96.47;;;28.73;;
5042;SDS011;2540;50.928;6.856;2022-12-16T06:06:06;112.50;;;30.73;;
5042;SDS011;2540;50.928;6.856;2022-12-16T06:08:49;109.07;;;31.83;;
5042;SDS011;2540;50.928;6.856;2022-12-16T06:11:34;103.35;;;29.23;;
5042;SDS011;2540;50.928;6.856;2022-12-16T06:14:17;101.50;;;28.15;;
5042;SDS011;2540;50.928;6.856;2022-12-16T06:17:01;88.97;;;28.75;;
5042;SDS011;2540;50.928;6.856;2022-12-16T06:19:45;99.15;;;27.70;;
5042;SDS011;2540;50.928;6.856;2022-12-16T06:22:29;100.55;;;28.48;;
5042;SDS011;2540;50.928;6.856;2022-12-16T06:25:13;110.32;;;27.67;;
5042;SDS011;2540;50.928;6.856;2022-12-16T06:27:57;103.90;;;29.13;;
5042;SDS011;2540;50.928;6.856;2022-12-16T06:30:41;96.03;;;29.38;;
5042;SDS011;2540;50.928;6.856;2022-12-16T06:33:25;108.43;;;32.30;;
5042;SDS011;2540;50.928;6.856;2022-12-16T06:36:09;110.13;;;34.40;;
5042;SDS011;2540;50.928;6.856;2022-12-16T06:38:53;109.18;;;32.05;;
5042;SDS011;2540;50.928;6.856;2022-12-16T06:41:36;88.72;;;27.90;;
5042;SDS011;2540;50.928;6.856;2022-12-16T06:44:20;86.18;;;29.33;;
5042;SDS011;2540;50.928;6.856;2022-12-16T06:47:05;80.95;;;27.00;;
5042;SDS011;2540;50.928;6.856;2022-12-16T06:49:48;72.70;;;24.73;;
5042;SDS011;2540;50.928;6.856;2022-12-16T06:52:32;76.47;;;24.02;;
5042;SDS011;2540;50.928;6.856;2022-12-16T06:55:16;70.40;;;24.85;;
5042;SDS011;2540;50.928;6.856;2022-12-16T06:58:00;75.25;;;24.67;;
5042;SDS011;2540;50.928;6.856;2022-12-16T07:00:44;73.75;;;24.73;;
5042;SDS011;2540;50.928;6.856;2022-12-16T07:03:28;68.95;;;24.90;;
5042;SDS011;2540;50.928;6.856;2022-12-16T07:06:12;72.03;;;23.65;;
5042;SDS011;2540;50.928;6.856;2022-12-16T07:08:56;78.07;;;23.50;;
5042;SDS011;2540;50.928;6.856;2022-12-16T07:11:39;75.22;;;26.25;;
5042;SDS011;2540;50.928;6.856;2022-12-16T07:14:23;79.07;;;24.73;;
5042;SDS011;2540;50.928;6.856;2022-12-16T07:17:07;73.75;;;24.25;;
5042;SDS011;2540;50.928;6.856;2022-12-16T07:19:51;82.90;;;24.58;;
5042;SDS011;2540;50.928;6.856;2022-12-16T07:22:35;71.32;;;24.58;;
5042;SDS011;2540;50.928;6.856;2022-12-16T07:25:19;64.25;;;22.95;;
5042;SDS011;2540;50.928;6.856;2022-12-16T07:28:03;65.25;;;23.00;;
5042;SDS011;2540;50.928;6.856;2022-12-16T07:30:47;76.00;;;22.92;;
5042;SDS011;2540;50.928;6.856;2022-12-16T07:33:31;66.82;;;21.85;;
5042;SDS011;2540;50.928;6.856;2022-12-16T07:36:15;61.85;;;22.60;;
5042;SDS011;2540;50.928;6.856;2022-12-16T07:38:59;64.40;;;22.10;;
5042;SDS011;2540;50.928;6.856;2022-12-16T07:41:43;66.53;;;23.23;;
5042;SDS011;2540;50.928;6.856;2022-12-16T07:44:26;71.30;;;22.42;;
5042;SDS011;2540;50.928;6.856;2022-12-16T07:47:10;60.05;;;21.60;;
5042;SDS011;2540;50.928;6.856;2022-12-16T07:49:54;61.83;;;21.73;;
5042;SDS011;2540;50.928;6.856;2022-12-16T07:52:38;58.85;;;22.42;;
5042;SDS011;2540;50.928;6.856;2022-12-16T07:55:22;61.20;;;20.95;;
5042;SDS011;2540;50.928;6.856;2022-12-16T07:58:07;60.28;;;21.70;;
5042;SDS011;2540;50.928;6.856;2022-12-16T08:00:50;66.10;;;23.50;;
5042;SDS011;2540;50.928;6.856;2022-12-16T08:03:35;75.82;;;24.17;;
5042;SDS011;2540;50.928;6.856;2022-12-16T08:06:18;60.20;;;22.73;;
5042;SDS011;2540;50.928;6.856;2022-12-16T08:09:02;72.55;;;25.05;;
5042;SDS011;2540;50.928;6.856;2022-12-16T08:11:46;70.13;;;24.35;;
5042;SDS011;2540;50.928;6.856;2022-12-16T08:14:30;72.55;;;24.33;;
5042;SDS011;2540;50.928;6.856;2022-12-16T08:17:14;80.35;;;25.10;;
5042;SDS011;2540;50.928;6.856;2022-12-16T08:19:58;89.10;;;26.48;;
5042;SDS011;2540;50.928;6.856;2022-12-16T08:22:42;87.77;;;26.90;;
5042;SDS011;2540;50.928;6.856;2022-12-16T08:25:26;91.40;;;25.33;;
5042;SDS011;2540;50.928;6.856;2022-12-16T08:28:10;81.55;;;26.08;;
5042;SDS011;2540;50.928;6.856;2022-12-16T08:30:54;96.00;;;27.35;;
5042;SDS011;2540;50.928;6.856;2022-12-16T08:33:37;91.05;;;28.23;;
5042;SDS011;2540;50.928;6.856;2022-12-16T08:36:21;84.22;;;26.05;;
5042;SDS011;2540;50.928;6.856;2022-12-16T08:39:05;81.88;;;26.15;;
5042;SDS011;2540;50.928;6.856;2022-12-16T08:41:49;89.47;;;25.73;;
5042;SDS011;2540;50.928;6.856;2022-12-16T08:44:33;79.68;;;26.63;;
5042;SDS011;2540;50.928;6.856;2022-12-16T08:47:17;79.50;;;25.48;;
5042;SDS011;2540;50.928;6.856;2022-12-16T08:50:01;76.72;;;23.85;;
5042;SDS011;2540;50.928;6.856;2022-12-16T08:52:45;73.20;;;24.70;;
5042;SDS011;2540;50.928;6.856;2022-12-16T08:55:29;76.93;;;25.02;;
5042;SDS011;2540;50.928;6.856;2022-12-16T08:58:13;72.50;;;24.08;;
5042;SDS011;2540;50.928;6.856;2022-12-16T09:00:57;62.80;;;23.70;;
5042;SDS011;2540;50.928;6.856;2022-12-16T09:03:41;61.95;;;22.65;;
5042;SDS011;2540;50.928;6.856;2022-12-16T09:06:25;63.03;;;23.20;;
5042;SDS011;2540;50.928;6.856;2022-12-16T09:09:09;62.58;;;23.35;;
5042;SDS011;2540;50.928;6.856;2022-12-16T09:11:53;74.22;;;24.92;;
5042;SDS011;2540;50.928;6.856;2022-12-16T09:14:37;58.63;;;21.25;;
5042;SDS011;2540;50.928;6.856;2022-12-16T09:17:21;72.00;;;22.95;;
5042;SDS011;2540;50.928;6.856;2022-12-16T09:20:05;65.05;;;22.48;;
5042;SDS011;2540;50.928;6.856;2022-12-16T09:22:49;59.33;;;22.05;;
5042;SDS011;2540;50.928;6.856;2022-12-16T09:25:33;79.50;;;25.35;;
5042;SDS011;2540;50.928;6.856;2022-12-16T09:28:17;63.38;;;23.83;;
5042;SDS011;2540;50.928;6.856;2022-12-16T09:31:01;67.55;;;23.63;;
5042;SDS011;2540;50.928;6.856;2022-12-16T09:33:44;70.15;;;22.60;;
5042;SDS011;2540;50.928;6.856;2022-12-16T09:36:28;70.45;;;23.98;;
5042;SDS011;2540;50.928;6.856;2022-12-16T09:39:12;68.32;;;24.73;;
5042;SDS011;2540;50.928;6.856;2022-12-16T09:42:07;71.10;;;26.20;;
5042;SDS011;2540;50.928;6.856;2022-12-16T09:44:57;82.23;;;27.47;;
5042;SDS011;2540;50.928;6.856;2022-12-16T09:50:33;79.15;;;27.10;;
5042;SDS011;2540;50.928;6.856;2022-12-16T09:53:19;71.20;;;25.07;;
5042;SDS011;2540;50.928;6.856;2022-12-16T09:56:04;67.40;;;24.93;;
5042;SDS011;2540;50.928;6.856;2022-12-16T09:58:50;61.03;;;23.07;;
5042;SDS011;2540;50.928;6.856;2022-12-16T10:01:36;69.73;;;27.00;;
5042;SDS011;2540;50.928;6.856;2022-12-16T10:04:20;66.50;;;24.90;;
5042;SDS011;2540;50.928;6.856;2022-12-16T10:07:06;67.20;;;26.00;;
5042;SDS011;2540;50.928;6.856;2022-12-16T10:15:47;60.87;;;23.40;;
5042;SDS011;2540;50.928;6.856;2022-12-16T10:18:57;57.10;;;22.60;;
5042;SDS011;2540;50.928;6.856;2022-12-16T10:21:41;69.87;;;21.20;;
5042;SDS011;2540;50.928;6.856;2022-12-16T10:27:12;52.07;;;21.97;;
5042;SDS011;2540;50.928;6.856;2022-12-16T10:29:56;66.03;;;22.90;;
5042;SDS011;2540;50.928;6.856;2022-12-16T10:32:41;56.43;;;22.57;;
5042;SDS011;2540;50.928;6.856;2022-12-16T10:35:27;51.83;;;22.50;;
5042;SDS011;2540;50.928;6.856;2022-12-16T10:38:13;66.20;;;24.23;;
5042;SDS011;2540;50.928;6.856;2022-12-16T10:40:58;50.93;;;20.40;;
5042;SDS011;2540;50.928;6.856;2022-12-16T10:43:43;67.23;;;22.93;;
5042;SDS011;2540;50.928;6.856;2022-12-16T10:46:29;50.67;;;21.40;;
5042;SDS011;2540;50.928;6.856;2022-12-16T10:49:15;52.70;;;21.50;;
5042;SDS011;2540;50.928;6.856;2022-12-16T10:51:59;46.87;;;21.20;;
5042;SDS011;2540;50.928;6.856;2022-12-16T10:54:49;50.70;;;22.30;;
5042;SDS011;2540;50.928;6.856;2022-12-16T11:00:18;47.13;;;19.90;;
5042;SDS011;2540;50.928;6.856;2022-12-16T11:03:20;51.63;;;22.73;;
5042;SDS011;2540;50.928;6.856;2022-12-16T11:06:03;53.27;;;23.17;;
5042;SDS011;2540;50.928;6.856;2022-12-16T11:08:47;49.73;;;22.57;;
5042;SDS011;2540;50.928;6.856;2022-12-16T11:11:31;44.50;;;21.20;;
5042;SDS011;2540;50.928;6.856;2022-12-16T11:14:17;42.43;;;20.80;;
5042;SDS011;2540;50.928;6.856;2022-12-16T11:17:11;44.07;;;21.43;;
5042;SDS011;2540;50.928;6.856;2022-12-16T11:23:07;44.30;;;20.07;;
5042;SDS011;2540;50.928;6.856;2022-12-16T11:29:00;44.73;;;20.30;;
5042;SDS011;2540;50.928;6.856;2022-12-16T11:31:45;41.73;;;18.57;;
5042;SDS011;2540;50.928;6.856;2022-12-16T11:34:31;43.90;;;19.97;;
5042;SDS011;2540;50.928;6.856;2022-12-16T11:37:15;48.97;;;21.13;;
5042;SDS011;2540;50.928;6.856;2022-12-16T11:39:59;49.40;;;21.97;;
5042;SDS011;2540;50.928;6.856;2022-12-16T11:42:43;43.17;;;19.73;;
5042;SDS011;2540;50.928;6.856;2022-12-16T11:45:27;47.70;;;20.67;;
5042;SDS011;2540;50.928;6.856;2022-12-16T11:48:20;57.57;;;19.80;;
5042;SDS011;2540;50.928;6.856;2022-12-16T11:51:07;46.00;;;21.40;;
5042;SDS011;2540;50.928;6.856;2022-12-16T11:53:58;68.63;;;27.83;;
5042;SDS011;2540;50.928;6.856;2022-12-16T11:56:43;82.67;;;30.63;;
5042;SDS011;2540;50.928;6.856;2022-12-16T12:05:14;74.90;;;27.40;;
5042;SDS011;2540;50.928;6.856;2022-12-16T12:08:04;69.77;;;28.50;;
5042;SDS011;2540;50.928;6.856;2022-12-16T12:25:59;78.27;;;28.23;;
5042;SDS011;2540;50.928;6.856;2022-12-16T12:28:40;76.47;;;31.10;;
5042;SDS011;2540;50.928;6.856;2022-12-16T12:31:41;79.63;;;28.77;;
5042;SDS011;2540;50.928;6.856;2022-12-16T12:34:31;76.53;;;29.10;;
5042;SDS011;2540;50.928;6.856;2022-12-16T12:43:22;68.63;;;27.37;;
5042;SDS011;2540;50.928;6.856;2022-12-16T12:49:01;67.30;;;27.70;;
5042;SDS011;2540;50.928;6.856;2022-12-16T12:57:22;68.03;;;27.10;;
5042;SDS011;2540;50.928;6.856;2022-12-16T13:00:16;77.77;;;29.27;;
5042;SDS011;2540;50.928;6.856;2022-12-16T13:05:54;59.30;;;24.00;;
5042;SDS011;2540;50.928;6.856;2022-12-16T13:11:22;70.53;;;24.20;;
5042;SDS011;2540;50.928;6.856;2022-12-16T13:17:09;76.90;;;27.67;;
5042;SDS011;2540;50.928;6.856;2022-12-16T13:19:53;85.07;;;27.63;;
5042;SDS011;2540;50.928;6.856;2022-12-16T13:22:37;82.27;;;23.40;;
5042;SDS011;2540;50.928;6.856;2022-12-16T13:25:30;68.47;;;23.30;;
5042;SDS011;2540;50.928;6.856;2022-12-16T13:28:21;64.77;;;23.90;;
5042;SDS011;2540;50.928;6.856;2022-12-16T13:31:06;65.23;;;22.63;;
5042;SDS011;2540;50.928;6.856;2022-12-16T13:33:50;63.40;;;25.37;;
5042;SDS011;2540;50.928;6.856;2022-12-16T13:36:34;75.90;;;25.30;;
5042;SDS011;2540;50.928;6.856;2022-12-16T13:39:20;81.23;;;24.07;;
5042;SDS011;2540;50.928;6.856;2022-12-16T13:42:04;75.37;;;23.77;;
5042;SDS011;2540;50.928;6.856;2022-12-16T13:53:18;92.83;;;27.70;;
5042;SDS011;2540;50.928;6.856;2022-12-16T13:56:03;90.37;;;28.07;;
5042;SDS011;2540;50.928;6.856;2022-12-16T13:58:51;90.97;;;27.73;;
5042;SDS011;2540;50.928;6.856;2022-12-16T14:04:23;92.60;;;26.07;;
5042;SDS011;2540;50.928;6.856;2022-12-16T14:07:08;107.67;;;27.70;;
5042;SDS011;2540;50.928;6.856;2022-12-16T14:09:52;115.30;;;29.97;;
5042;SDS011;2540;50.928;6.856;2022-12-16T14:12:39;96.93;;;29.07;;
5042;SDS011;2540;50.928;6.856;2022-12-16T14:15:26;114.80;;;30.77;;
5042;SDS011;2540;50.928;6.856;2022-12-16T14:18:15;116.60;;;31.30;;
5042;SDS011;2540;50.928;6.856;2022-12-16T14:21:02;111.90;;;30.80;;
5042;SDS011;2540;50.928;6.856;2022-12-16T14:23:48;97.43;;;28.97;;
5042;SDS011;2540;50.928;6.856;2022-12-16T14:26:34;109.87;;;31.00;;
5042;SDS011;2540;50.928;6.856;2022-12-16T14:29:26;102.13;;;29.80;;
5042;SDS011;2540;50.928;6.856;2022-12-16T14:32:24;105.00;;;31.17;;
5042;SDS011;2540;50.928;6.856;2022-12-16T14:35:13;109.50;;;31.07;;
5042;SDS011;2540;50.928;6.856;2022-12-16T14:37:57;111.07;;;32.30;;
5042;SDS011;2540;50.928;6.856;2022-12-16T14:40:41;99.23;;;31.70;;
5042;SDS011;2540;50.928;6.856;2022-12-16T14:43:25;100.23;;;33.97;;
5042;SDS011;2540;50.928;6.856;2022-12-16T14:46:42;87.67;;;27.73;;
5042;SDS011;2540;50.928;6.856;2022-12-16T14:49:23;86.77;;;27.20;;
5042;SDS011;2540;50.928;6.856;2022-12-16T14:52:20;77.97;;;27.13;;
5042;SDS011;2540;50.928;6.856;2022-12-16T14:58:04;84.00;;;28.73;;
5042;SDS011;2540;50.928;6.856;2022-12-16T15:00:48;111.90;;;32.13;;
5042;SDS011;2540;50.928;6.856;2022-12-16T15:03:39;101.63;;;32.37;;
5042;SDS011;2540;50.928;6.856;2022-12-16T15:06:28;113.37;;;31.50;;
5042;SDS011;2540;50.928;6.856;2022-12-16T15:09:23;127.53;;;35.80;;
5042;SDS011;2540;50.928;6.856;2022-12-16T15:12:07;115.30;;;33.33;;
5042;SDS011;2540;50.928;6.856;2022-12-16T15:14:52;105.97;;;30.60;;
5042;SDS011;2540;50.928;6.856;2022-12-16T15:17:43;104.20;;;32.20;;
5042;SDS011;2540;50.928;6.856;2022-12-16T15:20:30;105.50;;;31.20;;
5042;SDS011;2540;50.928;6.856;2022-12-16T15:26:02;86.97;;;26.50;;
5042;SDS011;2540;50.928;6.856;2022-12-16T15:28:46;89.30;;;26.67;;
5042;SDS011;2540;50.928;6.856;2022-12-16T15:31:31;101.13;;;30.63;;
5042;SDS011;2540;50.928;6.856;2022-12-16T15:34:20;92.77;;;29.80;;
5042;SDS011;2540;50.928;6.856;2022-12-16T15:37:22;106.33;;;31.00;;
5042;SDS011;2540;50.928;6.856;2022-12-16T15:40:20;99.20;;;28.57;;
5042;SDS011;2540;50.928;6.856;2022-12-16T15:43:04;103.60;;;26.43;;
5042;SDS011;2540;50.928;6.856;2022-12-16T15:45:49;92.17;;;28.07;;
5042;SDS011;2540;50.928;6.856;2022-12-16T15:48:33;98.20;;;29.67;;
5042;SDS011;2540;50.928;6.856;2022-12-16T15:51:32;118.67;;;30.67;;
5042;SDS011;2540;50.928;6.856;2022-12-16T15:54:24;88.93;;;23.97;;
5042;SDS011;2540;50.928;6.856;2022-12-16T16:00:15;88.87;;;25.40;;
5042;SDS011;2540;50.928;6.856;2022-12-16T16:03:00;92.93;;;28.60;;
5042;SDS011;2540;50.928;6.856;2022-12-16T16:05:44;106.60;;;27.73;;
5042;SDS011;2540;50.928;6.856;2022-12-16T16:08:28;98.67;;;26.57;;
5042;SDS011;2540;50.928;6.856;2022-12-16T16:11:12;91.43;;;25.60;;
5042;SDS011;2540;50.928;6.856;2022-12-16T16:13:56;87.07;;;27.20;;
5042;SDS011;2540;50.928;6.856;2022-12-16T16:16:39;107.53;;;29.00;;
5042;SDS011;2540;50.928;6.856;2022-12-16T16:19:24;99.57;;;29.30;;
5042;SDS011;2540;50.928;6.856;2022-12-16T16:22:15;120.90;;;30.07;;
5042;SDS011;2540;50.928;6.856;2022-12-16T16:25:00;108.37;;;28.90;;
5042;SDS011;2540;50.928;6.856;2022-12-16T16:27:44;95.93;;;29.30;;
5042;SDS011;2540;50.928;6.856;2022-12-16T16:30:27;106.03;;;29.17;;
5042;SDS011;2540;50.928;6.856;2022-12-16T16:33:11;136.03;;;30.30;;
5042;SDS011;2540;50.928;6.856;2022-12-16T16:36:12;108.13;;;29.10;;
5042;SDS011;2540;50.928;6.856;2022-12-16T16:38:56;107.80;;;29.67;;
5042;SDS011;2540;50.928;6.856;2022-12-16T16:41:40;109.53;;;31.03;;
5042;SDS011;2540;50.928;6.856;2022-12-16T16:44:24;112.17;;;31.33;;
5042;SDS011;2540;50.928;6.856;2022-12-16T16:47:09;118.93;;;29.47;;
5042;SDS011;2540;50.928;6.856;2022-12-16T16:49:57;119.87;;;30.17;;
5042;SDS011;2540;50.928;6.856;2022-12-16T16:52:41;107.23;;;30.67;;
5042;SDS011;2540;50.928;6.856;2022-12-16T16:55:25;104.07;;;27.13;;
5042;SDS011;2540;50.928;6.856;2022-12-16T16:58:19;140.07;;;30.80;;
5042;SDS011;2540;50.928;6.856;2022-12-16T17:01:04;122.50;;;29.57;;
5042;SDS011;2540;50.928;6.856;2022-12-16T17:03:48;110.90;;;31.17;;
5042;SDS011;2540;50.928;6.856;2022-12-16T17:06:32;131.23;;;28.47;;
5042;SDS011;2540;50.928;6.856;2022-12-16T17:09:15;112.77;;;29.60;;
5042;SDS011;2540;50.928;6.856;2022-12-16T17:11:59;117.30;;;31.50;;
5042;SDS011;2540;50.928;6.856;2022-12-16T17:14:43;118.53;;;29.43;;
5042;SDS011;2540;50.928;6.856;2022-12-16T17:17:27;123.90;;;31.10;;
5042;SDS011;2540;50.928;6.856;2022-12-16T17:20:15;114.27;;;30.93;;
5042;SDS011;2540;50.928;6.856;2022-12-16T17:23:02;112.83;;;31.60;;
5042;SDS011;2540;50.928;6.856;2022-12-16T17:25:46;115.30;;;32.90;;
5042;SDS011;2540;50.928;6.856;2022-12-16T17:28:30;81.33;;;22.93;;
5042;SDS011;2540;50.928;6.856;2022-12-16T17:31:14;109.67;;;30.23;;
5042;SDS011;2540;50.928;6.856;2022-12-16T17:33:58;116.67;;;31.33;;
5042;SDS011;2540;50.928;6.856;2022-12-16T17:36:42;127.03;;;33.27;;
5042;SDS011;2540;50.928;6.856;2022-12-16T17:39:26;133.30;;;31.60;;
5042;SDS011;2540;50.928;6.856;2022-12-16T17:42:10;129.67;;;33.47;;
5042;SDS011;2540;50.928;6.856;2022-12-16T17:44:54;122.13;;;29.83;;
5042;SDS011;2540;50.928;6.856;2022-12-16T17:47:38;124.90;;;33.20;;
5042;SDS011;2540;50.928;6.856;2022-12-16T17:50:21;109.67;;;31.50;;
5042;SDS011;2540;50.928;6.856;2022-12-16T17:53:06;109.07;;;30.50;;
5042;SDS011;2540;50.928;6.856;2022-12-16T17:55:50;108.40;;;30.63;;
5042;SDS011;2540;50.928;6.856;2022-12-16T18:01:09;120.90;;;30.90;;
5042;SDS011;2540;50.928;6.856;2022-12-16T18:03:52;107.53;;;34.13;;
5042;SDS011;2540;50.928;6.856;2022-12-16T18:06:36;122.50;;;35.63;;
5042;SDS011;2540;50.928;6.856;2022-12-16T18:09:20;125.40;;;32.83;;
5042;SDS011;2540;50.928;6.856;2022-12-16T18:12:04;126.10;;;35.33;;